createdAt,value
2023-02-16T00:00:36.798Z,18.62
2023-02-16T00:03:03.181Z,20.17
2023-02-16T00:05:29.546Z,19.70
2023-02-16T00:07:55.889Z,19.48
2023-02-16T00:10:22.220Z,19.65
2023-02-16T00:13:07.361Z,17.75
2023-02-16T00:15:33.677Z,19.02
2023-02-16T00:18:00.552Z,18.75
2023-02-16T00:20:26.849Z,19.17
2023-02-16T00:22:53.152Z,19.77
2023-02-16T00:25:19.505Z,18.92
2023-02-16T00:27:45.842Z,20.05
2023-02-16T00:30:12.214Z,20.00
2023-02-16T00:32:38.562Z,18.90
2023-02-16T00:35:04.905Z,18.17
2023-02-16T00:37:31.239Z,19.15
2023-02-16T00:39:57.573Z,20.62
2023-02-16T00:42:24.337Z,18.77
2023-02-16T00:44:50.672Z,19.33
2023-02-16T00:47:16.993Z,18.42
2023-02-16T00:49:43.295Z,18.65
2023-02-16T00:52:09.636Z,18.37
2023-02-16T00:54:35.951Z,18.62
2023-02-16T00:57:02.280Z,19.77
2023-02-16T00:59:28.595Z,18.10
2023-02-16T01:01:55.053Z,17.87
2023-02-16T01:04:21.566Z,18.37
2023-02-16T01:07:06.860Z,19.27
2023-02-16T01:09:51.636Z,17.75
2023-02-16T01:12:17.940Z,18.02
2023-02-16T01:14:44.258Z,18.37
2023-02-16T01:17:10.581Z,18.80
2023-02-16T01:19:36.903Z,17.62
2023-02-16T01:22:03.238Z,19.20
2023-02-16T01:24:29.563Z,19.65
2023-02-16T01:26:55.870Z,18.02
2023-02-16T01:29:22.250Z,18.95
2023-02-16T01:31:48.670Z,18.42
2023-02-16T01:34:15.102Z,17.92
2023-02-16T01:36:41.407Z,19.12
2023-02-16T01:39:07.837Z,19.10
2023-02-16T01:41:34.166Z,19.05
2023-02-16T01:44:00.492Z,19.45
2023-02-16T01:46:27.282Z,17.48
2023-02-16T01:48:53.644Z,17.80
2023-02-16T01:51:19.951Z,18.73
2023-02-16T01:53:46.620Z,17.62
2023-02-16T01:56:12.916Z,18.25
2023-02-16T01:58:39.216Z,17.92
2023-02-16T02:01:05.876Z,17.58
2023-02-16T02:03:51.051Z,17.48
2023-02-16T02:06:17.349Z,17.23
2023-02-16T02:08:43.650Z,18.17
2023-02-16T02:11:10.006Z,17.50
2023-02-16T02:13:36.308Z,17.85
2023-02-16T02:16:02.705Z,17.77
2023-02-16T02:18:29.063Z,16.77
2023-02-16T02:21:14.279Z,17.80
2023-02-16T02:23:40.652Z,18.58
2023-02-16T02:26:07.918Z,15.88
2023-02-16T02:28:34.269Z,16.60
2023-02-16T02:31:00.881Z,16.27
2023-02-16T02:33:27.262Z,16.92
2023-02-16T02:35:53.993Z,16.60
2023-02-16T02:38:20.313Z,15.82
2023-02-16T02:40:46.637Z,16.70
2023-02-16T02:43:12.952Z,15.15
2023-02-16T02:45:39.266Z,16.73
2023-02-16T02:48:05.643Z,16.17
2023-02-16T02:50:31.967Z,17.12
2023-02-16T02:52:58.291Z,17.55
2023-02-16T02:56:00.343Z,15.75
2023-02-16T02:58:45.233Z,15.07
2023-02-16T03:01:11.623Z,15.93
2023-02-16T03:03:38.021Z,15.65
2023-02-16T03:06:04.369Z,16.48
2023-02-16T03:08:30.677Z,15.45
2023-02-16T03:11:15.862Z,15.48
2023-02-16T03:13:42.195Z,16.25
2023-02-16T03:16:08.588Z,15.73
2023-02-16T03:18:53.914Z,15.73
2023-02-16T03:21:38.938Z,15.07
2023-02-16T03:24:23.953Z,15.57
2023-02-16T03:27:09.453Z,16.30
2023-02-16T03:29:35.895Z,16.08
2023-02-16T03:32:02.328Z,15.23
2023-02-16T03:34:28.698Z,16.23
2023-02-16T03:36:58.475Z,16.55
2023-02-16T03:39:24.798Z,16.12
2023-02-16T03:41:51.244Z,14.55
2023-02-16T03:44:17.602Z,16.05
2023-02-16T03:46:44.002Z,16.83
2023-02-16T03:49:10.332Z,16.77
2023-02-16T03:51:36.697Z,16.23
2023-02-16T03:54:03.006Z,15.75
2023-02-16T03:56:29.350Z,16.40
2023-02-16T03:58:55.718Z,16.73
2023-02-16T04:01:22.028Z,16.40
2023-02-16T04:03:48.442Z,17.70
2023-02-16T04:06:14.761Z,15.27
2023-02-16T04:08:41.151Z,16.67
2023-02-16T04:11:27.473Z,16.85
2023-02-16T04:13:53.835Z,17.15
2023-02-16T04:16:20.174Z,17.17
2023-02-16T04:18:46.535Z,17.00
2023-02-16T04:21:12.833Z,16.62
2023-02-16T04:23:39.211Z,16.50
2023-02-16T04:26:05.547Z,17.37
2023-02-16T04:28:31.885Z,16.75
2023-02-16T04:30:58.281Z,17.08
2023-02-16T04:33:24.728Z,17.07
2023-02-16T04:35:51.083Z,17.27
2023-02-16T04:38:17.431Z,16.52
2023-02-16T04:40:43.745Z,16.73
2023-02-16T04:43:10.055Z,16.15
2023-02-16T04:45:36.365Z,17.15
2023-02-16T04:48:02.702Z,17.10
2023-02-16T04:50:29.015Z,15.63
2023-02-16T04:52:55.336Z,16.27
2023-02-16T04:55:21.657Z,17.05
2023-02-16T04:57:47.990Z,17.08
2023-02-16T05:00:14.305Z,16.55
2023-02-16T05:02:40.627Z,18.37
2023-02-16T05:05:06.963Z,17.50
2023-02-16T05:07:33.305Z,16.37
2023-02-16T05:09:59.607Z,18.08
2023-02-16T05:12:44.858Z,16.92
2023-02-16T05:15:11.171Z,16.90
2023-02-16T05:17:37.496Z,18.02
2023-02-16T05:20:03.879Z,16.00
2023-02-16T05:22:33.588Z,16.90
2023-02-16T05:24:59.909Z,16.83
2023-02-16T05:27:26.225Z,17.42
2023-02-16T05:29:52.658Z,18.23
2023-02-16T05:32:19.031Z,18.50
2023-02-16T05:34:45.721Z,16.77
2023-02-16T05:37:12.107Z,17.95
2023-02-16T05:39:38.437Z,16.25
2023-02-16T05:42:04.777Z,17.70
2023-02-16T05:44:31.093Z,17.12
2023-02-16T05:46:57.458Z,17.80
2023-02-16T05:49:23.817Z,17.90
2023-02-16T05:51:50.120Z,16.62
2023-02-16T05:54:19.530Z,17.85
2023-02-16T05:56:46.228Z,17.52
2023-02-16T05:59:12.650Z,17.00
2023-02-16T06:01:40.985Z,17.83
2023-02-16T06:04:07.378Z,19.05
2023-02-16T06:06:33.707Z,17.52
2023-02-16T06:09:00.055Z,17.87
2023-02-16T06:11:38.849Z,18.73
2023-02-16T06:14:05.169Z,18.48
2023-02-16T06:16:31.517Z,18.50
2023-02-16T06:18:57.867Z,17.73
2023-02-16T06:21:24.181Z,18.80
2023-02-16T06:23:50.554Z,18.10
2023-02-16T06:26:16.863Z,16.83
2023-02-16T06:28:43.194Z,18.70
2023-02-16T06:31:09.638Z,18.08
2023-02-16T06:33:36.025Z,18.83
2023-02-16T06:36:02.345Z,18.67
2023-02-16T06:38:28.674Z,20.58
2023-02-16T06:40:55.004Z,18.70
2023-02-16T06:43:21.319Z,17.48
2023-02-16T06:45:47.610Z,19.37
2023-02-16T06:48:13.986Z,18.15
2023-02-16T06:50:40.297Z,16.60
2023-02-16T06:53:06.630Z,17.12
2023-02-16T06:55:36.838Z,17.67
2023-02-16T06:58:03.240Z,17.90
2023-02-16T07:00:30.175Z,19.10
2023-02-16T07:02:56.681Z,17.30
2023-02-16T07:05:23.033Z,17.60
2023-02-16T07:07:49.353Z,18.58
2023-02-16T07:10:15.685Z,18.17
2023-02-16T07:12:42.002Z,18.73
2023-02-16T07:15:08.354Z,17.90
2023-02-16T07:17:34.656Z,18.60
2023-02-16T07:20:00.970Z,17.58
2023-02-16T07:22:27.273Z,17.70
2023-02-16T07:24:56.216Z,16.73
2023-02-16T07:27:22.524Z,16.65
2023-02-16T07:29:48.830Z,19.30
2023-02-16T07:32:15.200Z,16.83
2023-02-16T07:34:41.826Z,19.05
2023-02-16T07:37:08.142Z,19.10
2023-02-16T07:39:34.513Z,18.40
2023-02-16T07:42:00.853Z,18.15
2023-02-16T07:44:27.169Z,17.80
2023-02-16T07:46:53.467Z,18.52
2023-02-16T07:49:19.977Z,18.23
2023-02-16T07:51:46.311Z,17.95
2023-02-16T07:54:12.692Z,16.83
2023-02-16T07:56:39.020Z,16.60
2023-02-16T07:59:05.335Z,18.95
2023-02-16T08:01:31.657Z,17.75
2023-02-16T08:03:57.989Z,17.98
2023-02-16T08:06:24.292Z,16.52
2023-02-16T08:08:50.639Z,17.40
2023-02-16T08:11:16.963Z,16.98
2023-02-16T08:13:43.304Z,16.67
2023-02-16T08:16:09.697Z,17.05
2023-02-16T08:18:36.049Z,17.98
2023-02-16T08:21:04.656Z,19.05
2023-02-16T08:23:31.642Z,18.33
2023-02-16T08:25:59.258Z,17.67
2023-02-16T08:28:29.000Z,17.48
2023-02-16T08:30:55.534Z,16.52
2023-02-16T08:33:21.887Z,17.25
2023-02-16T08:35:48.534Z,17.27
2023-02-16T08:38:17.229Z,16.40
2023-02-16T08:40:43.581Z,16.37
2023-02-16T08:43:09.873Z,17.70
2023-02-16T08:45:36.203Z,15.88
2023-02-16T08:48:02.553Z,16.37
2023-02-16T08:50:29.070Z,16.52
2023-02-16T08:52:55.406Z,15.77
2023-02-16T08:55:23.116Z,16.50
2023-02-16T08:57:49.443Z,17.75
2023-02-16T09:00:34.163Z,16.83
2023-02-16T09:03:00.895Z,16.65
2023-02-16T09:05:28.368Z,16.33
2023-02-16T09:07:54.700Z,17.58
2023-02-16T09:10:24.874Z,16.52
2023-02-16T09:12:51.178Z,16.40
2023-02-16T09:15:17.539Z,17.23
2023-02-16T09:17:43.857Z,16.90
2023-02-16T09:20:10.242Z,17.45
2023-02-16T09:22:36.935Z,16.40
2023-02-16T09:25:03.263Z,16.90
2023-02-16T09:27:29.592Z,16.37
2023-02-16T09:29:55.900Z,16.30
2023-02-16T09:32:22.957Z,16.20
2023-02-16T09:34:50.341Z,16.45
2023-02-16T09:37:16.673Z,17.27
2023-02-16T09:39:43.007Z,16.23
2023-02-16T09:42:09.320Z,17.40
2023-02-16T09:44:38.091Z,16.50
2023-02-16T09:47:04.972Z,16.98
2023-02-16T09:49:32.528Z,16.60
2023-02-16T09:51:58.864Z,16.62
2023-02-16T09:54:25.178Z,17.37
2023-02-16T09:56:51.547Z,15.70
2023-02-16T09:59:18.629Z,16.85
2023-02-16T10:01:45.642Z,17.05
2023-02-16T10:04:12.149Z,17.37
2023-02-16T10:06:40.454Z,17.65
2023-02-16T10:09:06.772Z,18.12
2023-02-16T10:11:39.023Z,18.83
2023-02-16T10:14:05.356Z,17.95
2023-02-16T10:16:31.681Z,18.10
2023-02-16T10:18:57.993Z,18.40
2023-02-16T10:21:24.331Z,18.37
2023-02-16T10:23:50.899Z,18.80
2023-02-16T10:26:18.118Z,18.23
2023-02-16T10:28:44.597Z,17.42
2023-02-16T10:31:11.020Z,18.08
2023-02-16T10:33:38.358Z,18.98
2023-02-16T10:36:04.736Z,18.25
2023-02-16T10:38:32.057Z,19.08
2023-02-16T10:40:58.442Z,19.70
2023-02-16T10:43:24.763Z,19.40
2023-02-16T10:45:52.392Z,18.58
2023-02-16T10:48:20.875Z,18.02
2023-02-16T10:50:47.922Z,18.62
2023-02-16T10:53:14.272Z,18.52
2023-02-16T10:55:40.674Z,18.62
2023-02-16T10:58:07.394Z,18.80
2023-02-16T11:00:33.715Z,17.58
2023-02-16T11:03:00.036Z,18.00
2023-02-16T11:05:26.411Z,20.17
2023-02-16T11:07:52.801Z,19.35
2023-02-16T11:10:19.126Z,19.17
2023-02-16T11:12:45.463Z,18.48
2023-02-16T11:15:12.146Z,19.40
2023-02-16T11:17:38.474Z,19.35
2023-02-16T11:20:05.813Z,18.65
2023-02-16T11:22:32.162Z,18.35
2023-02-16T11:24:59.751Z,17.62
2023-02-16T11:27:26.408Z,19.55
2023-02-16T11:29:52.789Z,19.40
2023-02-16T11:32:19.199Z,19.73
2023-02-16T11:34:45.805Z,18.37
2023-02-16T11:37:12.358Z,18.80
2023-02-16T11:39:38.679Z,19.20
2023-02-16T11:42:04.997Z,18.62
2023-02-16T11:44:31.523Z,18.35
2023-02-16T11:46:57.875Z,18.70
2023-02-16T11:49:24.227Z,19.73
2023-02-16T11:51:51.204Z,18.50
2023-02-16T11:54:17.572Z,19.83
2023-02-16T11:56:46.190Z,18.70
2023-02-16T11:59:12.864Z,19.33
2023-02-16T12:01:39.211Z,18.90
2023-02-16T12:04:05.727Z,18.67
2023-02-16T12:06:32.172Z,19.30
2023-02-16T12:08:58.549Z,19.83
2023-02-16T12:11:26.337Z,19.45
2023-02-16T12:13:52.721Z,19.73
2023-02-16T12:16:19.061Z,20.33
2023-02-16T12:18:45.395Z,19.15
2023-02-16T12:21:12.196Z,19.37
2023-02-16T12:23:38.524Z,20.00
2023-02-16T12:26:05.343Z,19.60
2023-02-16T12:28:32.461Z,18.30
2023-02-16T12:30:58.820Z,18.92
2023-02-16T12:33:26.241Z,19.77
2023-02-16T12:35:52.562Z,19.08
2023-02-16T12:38:18.901Z,20.80
2023-02-16T12:40:45.280Z,19.92
2023-02-16T12:43:11.633Z,18.60
2023-02-16T12:45:38.049Z,19.55
2023-02-16T12:48:04.408Z,20.58
2023-02-16T12:50:30.777Z,19.25
2023-02-16T12:52:57.160Z,20.15
2023-02-16T12:55:23.576Z,21.12
2023-02-16T12:57:49.867Z,20.62
2023-02-16T13:00:17.859Z,21.33
2023-02-16T13:02:44.724Z,20.27
2023-02-16T13:05:11.099Z,20.77
2023-02-16T13:07:37.413Z,22.15
2023-02-16T13:10:03.778Z,19.83
2023-02-16T13:12:31.460Z,21.05
2023-02-16T13:14:57.786Z,20.27
2023-02-16T13:17:24.114Z,21.85
2023-02-16T13:19:52.040Z,20.50
2023-02-16T13:22:18.356Z,22.67
2023-02-16T13:24:45.519Z,20.98
2023-02-16T13:27:11.825Z,21.27
2023-02-16T13:29:38.437Z,22.30
2023-02-16T13:32:04.895Z,21.02
2023-02-16T13:34:31.314Z,23.10
2023-02-16T13:36:58.211Z,22.62
2023-02-16T13:39:24.557Z,21.27
2023-02-16T13:41:52.185Z,22.95
2023-02-16T13:44:18.497Z,22.75
2023-02-16T13:46:45.874Z,21.70
2023-02-16T13:49:12.216Z,23.17
2023-02-16T13:51:38.536Z,22.42
2023-02-16T13:54:04.904Z,23.38
2023-02-16T13:56:31.208Z,22.95
2023-02-16T13:58:58.238Z,23.40
2023-02-16T14:01:24.618Z,23.00
2023-02-16T14:03:50.981Z,22.67
2023-02-16T14:06:17.388Z,23.60
2023-02-16T14:08:44.525Z,22.13
2023-02-16T14:11:10.935Z,24.02
2023-02-16T14:13:37.256Z,23.33
2023-02-16T14:16:04.049Z,23.12
2023-02-16T14:18:31.286Z,22.15
2023-02-16T14:20:57.589Z,23.45
2023-02-16T14:23:23.936Z,22.50
2023-02-16T14:25:50.268Z,23.17
2023-02-16T14:28:16.598Z,23.35
2023-02-16T14:30:43.052Z,23.17
2023-02-16T14:33:09.638Z,22.95
2023-02-16T14:35:35.994Z,22.95
2023-02-16T14:38:02.305Z,23.15
2023-02-16T14:40:28.608Z,22.92
2023-02-16T14:42:55.063Z,23.92
2023-02-16T14:45:21.428Z,23.17
2023-02-16T14:47:47.757Z,22.70
2023-02-16T14:50:14.173Z,22.95
2023-02-16T14:52:40.678Z,22.05
2023-02-16T14:55:07.280Z,22.52
2023-02-16T14:57:33.900Z,23.05
2023-02-16T15:00:01.088Z,22.95
2023-02-16T15:02:27.509Z,22.33
2023-02-16T15:04:53.881Z,21.95
2023-02-16T15:07:21.641Z,23.65
2023-02-16T15:09:48.022Z,23.62
2023-02-16T15:12:23.559Z,22.75
2023-02-16T15:14:49.925Z,22.80
2023-02-16T15:17:16.278Z,24.10
2023-02-16T15:19:44.001Z,24.42
2023-02-16T15:22:10.541Z,21.58
2023-02-16T15:24:36.899Z,24.00
2023-02-16T15:27:03.743Z,23.87
2023-02-16T15:29:30.416Z,24.77
2023-02-16T15:31:57.014Z,24.80
2023-02-16T15:34:23.341Z,23.12
2023-02-16T15:36:49.684Z,23.60
2023-02-16T15:39:16.007Z,22.73
2023-02-16T15:41:42.355Z,23.87
2023-02-16T15:44:08.667Z,23.83
2023-02-16T15:46:35.041Z,24.40
2023-02-16T15:49:01.529Z,24.10
2023-02-16T15:51:27.868Z,24.50
2023-02-16T15:53:54.263Z,25.05
2023-02-16T15:56:20.832Z,24.48
2023-02-16T15:58:47.798Z,24.05
2023-02-16T16:01:17.130Z,24.58
2023-02-16T16:03:46.683Z,23.65
2023-02-16T16:06:13.321Z,25.42
2023-02-16T16:08:39.652Z,24.70
2023-02-16T16:11:06.389Z,24.80
2023-02-16T16:13:32.984Z,23.98
2023-02-16T16:16:01.959Z,26.12
2023-02-16T16:18:29.308Z,23.83
2023-02-16T16:20:55.605Z,24.77
2023-02-16T16:23:22.429Z,25.08
2023-02-16T16:25:48.769Z,25.50
2023-02-16T16:28:15.224Z,24.77
2023-02-16T16:30:44.000Z,26.62
2023-02-16T16:33:10.402Z,25.35
2023-02-16T16:35:36.822Z,26.92
2023-02-16T16:38:03.158Z,25.88
2023-02-16T16:40:29.465Z,25.05
2023-02-16T16:42:55.802Z,25.67
2023-02-16T16:45:22.144Z,26.10
2023-02-16T16:47:48.506Z,26.23
2023-02-16T16:50:14.993Z,27.42
2023-02-16T16:52:41.641Z,25.90
2023-02-16T16:55:07.946Z,25.77
2023-02-16T16:57:34.268Z,28.17
2023-02-16T17:00:00.600Z,27.23
2023-02-16T17:02:26.910Z,27.23
2023-02-16T17:04:53.321Z,26.52
2023-02-16T17:07:19.669Z,26.65
2023-02-16T17:09:46.032Z,28.12
2023-02-16T17:12:12.371Z,27.50
2023-02-16T17:14:38.718Z,28.05
2023-02-16T17:17:08.700Z,26.85
2023-02-16T17:19:38.238Z,27.45
2023-02-16T17:22:04.573Z,29.02
2023-02-16T17:24:30.892Z,27.55
2023-02-16T17:26:57.212Z,28.83
2023-02-16T17:29:23.753Z,28.45
2023-02-16T17:31:50.777Z,26.87
2023-02-16T17:34:17.277Z,27.80
2023-02-16T17:36:43.645Z,27.55
2023-02-16T17:39:09.997Z,29.73
2023-02-16T17:41:36.319Z,27.23
2023-02-16T17:44:04.171Z,28.83
2023-02-16T17:46:30.534Z,27.13
2023-02-16T17:48:56.873Z,28.85
2023-02-16T17:51:23.193Z,28.80
2023-02-16T17:53:49.511Z,28.05
2023-02-16T17:56:15.862Z,27.87
2023-02-16T17:58:42.198Z,27.87
2023-02-16T18:01:08.543Z,29.80
2023-02-16T18:03:34.901Z,28.17
2023-02-16T18:06:02.935Z,29.48
2023-02-16T18:08:29.395Z,27.52
2023-02-16T18:11:01.988Z,29.02
2023-02-16T18:13:28.504Z,28.45
2023-02-16T18:15:54.819Z,27.30
2023-02-16T18:18:21.155Z,28.12
2023-02-16T18:20:47.474Z,28.80
2023-02-16T18:23:14.676Z,29.42
2023-02-16T18:25:43.172Z,29.42
2023-02-16T18:28:09.485Z,27.05
2023-02-16T18:30:35.904Z,27.75
2023-02-16T18:33:02.343Z,28.02
2023-02-16T18:35:28.697Z,27.17
2023-02-16T18:37:55.038Z,26.23
2023-02-16T18:40:21.421Z,28.55
2023-02-16T18:42:47.923Z,28.40
2023-02-16T18:45:14.393Z,27.77
2023-02-16T18:47:40.756Z,27.83
2023-02-16T18:50:07.069Z,28.25
2023-02-16T18:52:33.435Z,29.12
2023-02-16T18:54:59.869Z,28.38
2023-02-16T18:57:26.257Z,28.90
2023-02-16T18:59:52.603Z,28.15
2023-02-16T19:02:18.949Z,28.60
2023-02-16T19:04:45.442Z,29.05
2023-02-16T19:07:11.838Z,27.77
2023-02-16T19:09:38.223Z,28.48
2023-02-16T19:12:04.591Z,28.85
2023-02-16T19:14:30.911Z,28.15
2023-02-16T19:16:57.227Z,26.62
2023-02-16T19:19:23.516Z,29.12
2023-02-16T19:21:49.847Z,28.00
2023-02-16T19:24:16.205Z,27.48
2023-02-16T19:26:42.564Z,27.50
2023-02-16T19:29:08.883Z,28.70
2023-02-16T19:31:39.355Z,29.08
2023-02-16T19:34:05.722Z,27.85
2023-02-16T19:36:33.588Z,27.20
2023-02-16T19:38:59.945Z,28.87
2023-02-16T19:43:58.311Z,27.80
2023-02-16T19:46:24.658Z,28.15
2023-02-16T19:48:51.089Z,28.45
2023-02-16T19:51:17.404Z,28.73
2023-02-16T19:53:43.926Z,28.67
2023-02-16T19:56:10.265Z,28.48
2023-02-16T19:58:36.568Z,28.05
2023-02-16T20:01:02.869Z,27.20
2023-02-16T20:03:31.187Z,29.95
2023-02-16T20:05:57.507Z,28.85
2023-02-16T20:08:23.894Z,28.70
2023-02-16T20:10:50.263Z,28.85
2023-02-16T20:13:16.589Z,28.50
2023-02-16T20:15:42.901Z,28.05
2023-02-16T20:18:09.276Z,29.33
2023-02-16T20:20:36.045Z,28.52
2023-02-16T20:23:02.350Z,28.75
2023-02-16T20:25:28.939Z,29.17
2023-02-16T20:27:55.316Z,29.87
2023-02-16T20:30:25.333Z,27.65
2023-02-16T20:32:51.743Z,28.55
2023-02-16T20:35:18.052Z,26.30
2023-02-16T20:37:44.544Z,27.83
2023-02-16T20:40:10.859Z,27.92
2023-02-16T20:42:41.160Z,27.50
2023-02-16T20:45:07.457Z,28.00
2023-02-16T20:47:33.777Z,26.77
2023-02-16T20:50:00.139Z,26.33
2023-02-16T20:52:26.467Z,26.92
2023-02-16T20:54:52.814Z,27.33
2023-02-16T20:57:26.758Z,25.90
2023-02-16T20:59:53.713Z,27.75
2023-02-16T21:02:20.107Z,27.40
2023-02-16T21:04:46.463Z,26.73
2023-02-16T21:07:12.773Z,27.55
2023-02-16T21:09:39.196Z,26.33
2023-02-16T21:12:05.497Z,26.33
2023-02-16T21:14:31.861Z,26.23
2023-02-16T21:16:58.231Z,26.15
2023-02-16T21:19:24.556Z,26.10
2023-02-16T21:21:50.879Z,25.80
2023-02-16T21:24:17.205Z,27.45
2023-02-16T21:26:43.737Z,27.23
2023-02-16T21:29:10.064Z,25.50
2023-02-16T21:31:36.572Z,25.45
2023-02-16T21:34:02.959Z,26.60
2023-02-16T21:36:29.340Z,25.00
2023-02-16T21:38:55.712Z,24.52
2023-02-16T21:41:25.272Z,24.80
2023-02-16T21:43:51.709Z,25.45
2023-02-16T21:46:18.011Z,24.98
2023-02-16T21:48:50.538Z,24.48
2023-02-16T21:51:16.926Z,25.30
2023-02-16T21:53:43.322Z,24.45
2023-02-16T21:56:19.966Z,23.80
2023-02-16T21:58:46.301Z,23.95
2023-02-16T22:01:12.746Z,24.65
2023-02-16T22:03:39.133Z,24.63
2023-02-16T22:06:05.744Z,25.77
2023-02-16T22:08:32.472Z,22.85
2023-02-16T22:10:58.826Z,25.17
2023-02-16T22:13:25.153Z,24.75
2023-02-16T22:15:51.463Z,23.98
2023-02-16T22:18:17.780Z,24.60
2023-02-16T22:20:44.106Z,25.73
2023-02-16T22:23:10.445Z,25.70
2023-02-16T22:25:36.779Z,25.62
2023-02-16T22:28:03.084Z,24.12
2023-02-16T22:30:29.494Z,24.25
2023-02-16T22:32:55.848Z,24.40
2023-02-16T22:35:22.210Z,24.33
2023-02-16T22:37:48.506Z,25.62
2023-02-16T22:40:14.900Z,25.67
2023-02-16T22:42:41.212Z,24.30
2023-02-16T22:45:07.549Z,24.12
2023-02-16T22:47:33.868Z,23.30
2023-02-16T22:50:00.197Z,23.20
2023-02-16T22:52:27.124Z,23.45
2023-02-16T22:54:53.523Z,24.98
2023-02-16T22:57:19.965Z,23.90
2023-02-16T22:59:46.316Z,22.50
2023-02-16T23:02:12.658Z,23.83
2023-02-16T23:04:39.082Z,24.30
2023-02-16T23:07:06.083Z,23.12
2023-02-16T23:09:32.415Z,23.23
2023-02-16T23:11:58.761Z,24.17
2023-02-16T23:14:25.182Z,22.95
2023-02-16T23:16:51.585Z,24.67
2023-02-16T23:19:17.971Z,22.45
2023-02-16T23:21:44.313Z,23.30
2023-02-16T23:24:10.620Z,23.12
2023-02-16T23:26:36.963Z,22.80
2023-02-16T23:29:03.358Z,21.55
2023-02-16T23:31:29.781Z,21.30
2023-02-16T23:33:56.163Z,21.48
2023-02-16T23:36:22.479Z,21.75
2023-02-16T23:38:48.807Z,20.80
2023-02-16T23:41:15.105Z,22.23
2023-02-16T23:43:41.438Z,21.73
2023-02-16T23:46:08.118Z,20.30
2023-02-16T23:48:34.701Z,20.92
2023-02-16T23:51:01.032Z,21.10
2023-02-16T23:53:27.351Z,22.48
2023-02-16T23:55:53.668Z,21.65
2023-02-16T23:58:19.990Z,21.33
